METAR AND TAF INFORMATION
METAR FOR KSPS
ADDS - METARS form results

(2305 UTC 22 May 2018)
Data provider http://aviationweather.gov/adds/metars/
 
METAR text: KSPS 222252Z 13013KT 10SM CLR 30/18 A2991 RMK AO2 SLP117 T03000183
Conditions at: KSPS (WICHITA FALL , TX, US) observed 2252 UTC 22 May 2018
Temperature: 30.0°C (86°F)
Dewpoint: 18.3°C (65°F) [RH = 50%]
Pressure (altimeter): 29.91 inches Hg (1013.0 mb)
[Sea-level pressure: 1011.7 mb]
Winds: from the SE (130 degrees) at 15 MPH (13 knots; 6.8 m/s)
Visibility: 10 or more miles (16+ km)
Ceiling: at least 12,000 feet AGL
Clouds: sky clear below 12,000 feet AGL
Weather: no significant weather observed at this time

Forecast for: KSPS (WICHITA FALL , TX, US)
Text: KSPS 221724Z 2218/2318 16009KT P6SM SCT035
Forecast period: 1800 to 2200 UTC 22 May 2018
Forecast type: FROM: standard forecast or significant change
Winds: from the SSE (160 degrees) at 10 MPH (9 knots; 4.7 m/s)
Visibility: 6 or more miles (10+ km)
Clouds: scattered clouds at 3500 feet AGL
Weather: no significant weather forecast for this period
Forecast for: KSPS (WICHITA FALL , TX, US)
Text: KSPS 221724Z 2218/2318 16009KT P6SM SCT035
Forecast period: 1800 to 2200 UTC 22 May 2018
Forecast type: FROM: standard forecast or significant change
Winds: from the SSE (160 degrees) at 10 MPH (9 knots; 4.7 m/s)
Visibility: 6 or more miles (10+ km)
Clouds: scattered clouds at 3500 feet AGL
Weather: no significant weather forecast for this period
Forecast for: KSPS (WICHITA FALL , TX, US)
Text: KSPS 221724Z 2218/2318 16009KT P6SM SCT035
Forecast period: 1800 to 2100 UTC 22 May 2018
Forecast type: TEMPORARY: The following changes expected for less than half the time period
Ceiling: 4000 feet AGL
Clouds: broken clouds at 4000 feet AGL
Weather: no significant weather forecast for this period
Forecast for: KSPS (WICHITA FALL , TX, US)
Text: KSPS 221724Z 2218/2318 16009KT P6SM SCT035
Forecast period: 1800 to 2100 UTC 22 May 2018
Forecast type: TEMPORARY: The following changes expected for less than half the time period
Ceiling: 4000 feet AGL
Clouds: broken clouds at 4000 feet AGL
Weather: no significant weather forecast for this period
Forecast for: KSPS (WICHITA FALL , TX, US)
Text: KSPS 221724Z 2218/2318 16009KT P6SM SCT035
Forecast period: 2200 UTC 22 May 2018 to 1800 UTC 23 May 2018
Forecast type: FROM: standard forecast or significant change
Winds: from the SE (130 degrees) at 9 MPH (8 knots; 4.2 m/s)
Visibility: 6 or more miles (10+ km)
Clouds: scattered clouds at 25000 feet AGL
Weather: no significant weather forecast for this period
Forecast for: KSPS (WICHITA FALL , TX, US)
Text: KSPS 221724Z 2218/2318 16009KT P6SM SCT035
Forecast period: 2200 UTC 22 May 2018 to 1800 UTC 23 May 2018
Forecast type: FROM: standard forecast or significant change
Winds: from the SE (130 degrees) at 9 MPH (8 knots; 4.2 m/s)
Visibility: 6 or more miles (10+ km)
Clouds: scattered clouds at 25000 feet AGL
Weather: no significant weather forecast for this period

 AIRPORT MAP

 RUNWAY INFORMATION
Runway 15C Runway length 10003 ft Runway width 150 ft
Runway elevation 1002 ft Runway displaced threshold 0 ft Runway heading 158
Runway 33C Runway length 10003 ft Runway width 150 ft
Runway elevation 989 ft Runway displaced threshold 0 ft Runway heading 338
Runway 15L Runway length 6000 ft Runway width 150 ft
Runway elevation 1019 ft Runway displaced threshold 0 ft Runway heading 158
Runway 33R Runway length 6000 ft Runway width 150 ft
Runway elevation 999 ft Runway displaced threshold 0 ft Runway heading 338
Runway 15R Runway length 13101 ft Runway width 300 ft
Runway elevation 1000 ft Runway displaced threshold 0 ft Runway heading 158
Runway 33L Runway length 13101 ft Runway width 300 ft
Runway elevation 998 ft Runway displaced threshold 0 ft Runway heading 338
Runway 17 Runway length 7021 ft Runway width 150 ft
Runway elevation 1001 ft Runway displaced threshold 0 ft Runway heading 181
Runway 35 Runway length 7021 ft Runway width 150 ft
Runway elevation 1014 ft Runway displaced threshold 0 ft Runway heading 1

 AIRPORT FREQUENCIES
Type APP Name APP Frequency 118.2 MHZ
Type ATIS Name ATIS Frequency 132.05 MHZ
Type CLD Name CLNC DEL Frequency 121.2 MHZ
Type CTAF Name CTAF Frequency 119.75 MHZ
Type DEP Name DEP Frequency 120.4 MHZ
Type GND Name GND Frequency 125.5 MHZ
Type PMSV Name PMSV METRO Frequency 34.46 MHZ
Type PTD Name PTD Frequency 37.22 MHZ
Type RDO Name FORT WORTH Frequency 122.65 MHZ
Type TWR Name TWR Frequency 119.75 MHZ
Type UNIC Name UNICOM Frequency 122.95 MHZ

 AIRPORT NEAR NAVIGATION AIDS
Type TACAN Name Sheppard Frequency 110800 KHZ
Type NDB Name Shawn Frequency 296 KHZ
Type VORTAC Name Wichita Falls Frequency 112700 KHZ


... ... ... ... ... ...

© Copyright 2017 All Rights Reserved. Virtual NATO is in no way affiliated with NATO or any of the NATO Members

NATO Virtual is a volunteer not for profit group of friends with the common interest in promoting enjoyment and education through the simulation of military operations and procedure through the use of operating standards within several flight simulation platforms.

Powered by Virtual Airlines Manager [v2.6.2] Customized by Virtual NATO